sensor_id;sensor_type;location;lat;lon;timestamp;pressure;altitude;pressure_sealevel;temperature;humidity
18509;BME280;9383;50.928;12.116;2022-09-09T00:00:16;98443.59;;;12.73;100.00
18509;BME280;9383;50.928;12.116;2022-09-09T00:03:05;98446.41;;;12.70;100.00
18509;BME280;9383;50.928;12.116;2022-09-09T00:05:58;98440.50;;;12.65;100.00
18509;BME280;9383;50.928;12.116;2022-09-09T00:11:46;98436.47;;;12.56;100.00
18509;BME280;9383;50.928;12.116;2022-09-09T00:14:26;98441.13;;;12.52;100.00
18509;BME280;9383;50.928;12.116;2022-09-09T00:17:06;98442.97;;;12.50;100.00
18509;BME280;9383;50.928;12.116;2022-09-09T00:22:54;98363.13;;;11.99;100.00
18509;BME280;9383;50.928;12.116;2022-09-09T00:25:39;98440.81;;;12.41;100.00
18509;BME280;9383;50.928;12.116;2022-09-09T00:28:28;98425.94;;;12.37;100.00
18509;BME280;9383;50.928;12.116;2022-09-09T00:31:13;98430.56;;;12.33;100.00
18509;BME280;9383;50.928;12.116;2022-09-09T00:33:41;98409.03;;;12.20;100.00
18509;BME280;9383;50.928;12.116;2022-09-09T00:36:21;98427.25;;;12.28;100.00
18509;BME280;9383;50.928;12.116;2022-09-09T00:38:57;98367.41;;;11.84;100.00
18509;BME280;9383;50.928;12.116;2022-09-09T00:44:30;98417.72;;;12.24;100.00
18509;BME280;9383;50.928;12.116;2022-09-09T00:53:39;98423.28;;;12.19;100.00
18509;BME280;9383;50.928;12.116;2022-09-09T00:56:13;98396.00;;;11.96;100.00
18509;BME280;9383;50.928;12.116;2022-09-09T01:01:37;98427.81;;;12.17;100.00
18509;BME280;9383;50.928;12.116;2022-09-09T01:04:16;98427.88;;;12.16;100.00
18509;BME280;9383;50.928;12.116;2022-09-09T01:06:54;98360.91;;;11.72;100.00
18509;BME280;9383;50.928;12.116;2022-09-09T01:09:50;98435.06;;;12.14;100.00
18509;BME280;9383;50.928;12.116;2022-09-09T01:12:42;98439.50;;;12.13;100.00
18509;BME280;9383;50.928;12.116;2022-09-09T01:15:20;98410.81;;;12.02;100.00
18509;BME280;9383;50.928;12.116;2022-09-09T01:18:04;98429.81;;;12.12;100.00
18509;BME280;9383;50.928;12.116;2022-09-09T01:26:45;98346.31;;;11.63;100.00
18509;BME280;9383;50.928;12.116;2022-09-09T01:29:16;98415.13;;;12.05;100.00
18509;BME280;9383;50.928;12.116;2022-09-09T01:34:27;98379.03;;;11.81;100.00
18509;BME280;9383;50.928;12.116;2022-09-09T01:37:04;98339.13;;;11.65;100.00
18509;BME280;9383;50.928;12.116;2022-09-09T01:39:36;98410.28;;;12.13;100.00
18509;BME280;9383;50.928;12.116;2022-09-09T01:42:23;98385.41;;;11.96;100.00
18509;BME280;9383;50.928;12.116;2022-09-09T01:44:50;98403.41;;;12.09;100.00
18509;BME280;9383;50.928;12.116;2022-09-09T01:47:18;98406.72;;;12.14;100.00
18509;BME280;9383;50.928;12.116;2022-09-09T01:49:45;98320.06;;;11.57;100.00
18509;BME280;9383;50.928;12.116;2022-09-09T01:52:24;98327.72;;;11.63;100.00
18509;BME280;9383;50.928;12.116;2022-09-09T01:54:53;98396.38;;;12.08;100.00
18509;BME280;9383;50.928;12.116;2022-09-09T01:57:28;98357.78;;;11.81;100.00
18509;BME280;9383;50.928;12.116;2022-09-09T02:03:05;98414.53;;;12.17;100.00
18509;BME280;9383;50.928;12.116;2022-09-09T02:05:45;98412.81;;;12.16;100.00
18509;BME280;9383;50.928;12.116;2022-09-09T02:08:26;98332.09;;;11.64;100.00
18509;BME280;9383;50.928;12.116;2022-09-09T02:13:36;98425.16;;;12.17;100.00
18509;BME280;9383;50.928;12.116;2022-09-09T02:16:14;98418.97;;;12.17;100.00
18509;BME280;9383;50.928;12.116;2022-09-09T02:18:51;98420.63;;;12.19;100.00
18509;BME280;9383;50.928;12.116;2022-09-09T02:21:20;98397.31;;;12.07;100.00
18509;BME280;9383;50.928;12.116;2022-09-09T02:23:50;98432.56;;;12.28;100.00
18509;BME280;9383;50.928;12.116;2022-09-09T02:26:21;98422.94;;;12.26;100.00
18509;BME280;9383;50.928;12.116;2022-09-09T02:28:53;98422.44;;;12.36;100.00
18509;BME280;9383;50.928;12.116;2022-09-09T02:31:24;98428.44;;;12.40;100.00
18509;BME280;9383;50.928;12.116;2022-09-09T02:33:57;98431.72;;;12.45;100.00
18509;BME280;9383;50.928;12.116;2022-09-09T02:36:31;98409.31;;;12.33;100.00
18509;BME280;9383;50.928;12.116;2022-09-09T02:39:00;98388.50;;;12.24;100.00
18509;BME280;9383;50.928;12.116;2022-09-09T02:41:35;98431.25;;;12.55;100.00
18509;BME280;9383;50.928;12.116;2022-09-09T02:44:19;98421.41;;;12.57;100.00
18509;BME280;9383;50.928;12.116;2022-09-09T02:50:05;98370.59;;;12.28;100.00
18509;BME280;9383;50.928;12.116;2022-09-09T02:53:23;98416.84;;;12.59;100.00
18509;BME280;9383;50.928;12.116;2022-09-09T02:56:09;98403.25;;;12.47;100.00
18509;BME280;9383;50.928;12.116;2022-09-09T02:58:40;98383.34;;;12.38;100.00
18509;BME280;9383;50.928;12.116;2022-09-09T03:01:07;98383.09;;;12.43;100.00
18509;BME280;9383;50.928;12.116;2022-09-09T03:03:35;98415.91;;;12.60;100.00
18509;BME280;9383;50.928;12.116;2022-09-09T03:06:03;98379.25;;;12.31;100.00
18509;BME280;9383;50.928;12.116;2022-09-09T03:08:34;98411.16;;;12.49;100.00
18509;BME280;9383;50.928;12.116;2022-09-09T03:11:00;98368.25;;;12.21;100.00
18509;BME280;9383;50.928;12.116;2022-09-09T03:13:28;98420.28;;;12.61;100.00
18509;BME280;9383;50.928;12.116;2022-09-09T03:15:54;98359.50;;;12.19;100.00
18509;BME280;9383;50.928;12.116;2022-09-09T03:18:23;98319.75;;;11.99;100.00
18509;BME280;9383;50.928;12.116;2022-09-09T03:20:50;98365.44;;;12.24;100.00
18509;BME280;9383;50.928;12.116;2022-09-09T03:23:18;98307.91;;;11.88;100.00
18509;BME280;9383;50.928;12.116;2022-09-09T03:25:50;98393.91;;;12.40;100.00
18509;BME280;9383;50.928;12.116;2022-09-09T03:28:23;98367.53;;;12.18;100.00
18509;BME280;9383;50.928;12.116;2022-09-09T03:30:51;98379.53;;;12.27;100.00
18509;BME280;9383;50.928;12.116;2022-09-09T03:33:18;98398.19;;;12.43;100.00
18509;BME280;9383;50.928;12.116;2022-09-09T03:35:46;98424.84;;;12.59;100.00
18509;BME280;9383;50.928;12.116;2022-09-09T03:38:17;98360.50;;;12.17;100.00
18509;BME280;9383;50.928;12.116;2022-09-09T03:40:54;98433.59;;;12.61;100.00
18509;BME280;9383;50.928;12.116;2022-09-09T03:43:24;98397.16;;;12.45;100.00
18509;BME280;9383;50.928;12.116;2022-09-09T03:45:53;98421.94;;;12.63;100.00
18509;BME280;9383;50.928;12.116;2022-09-09T03:48:26;98382.31;;;12.41;100.00
18509;BME280;9383;50.928;12.116;2022-09-09T03:50:54;98399.25;;;12.56;100.00
18509;BME280;9383;50.928;12.116;2022-09-09T03:53:23;98407.94;;;12.60;100.00
18509;BME280;9383;50.928;12.116;2022-09-09T03:55:55;98365.91;;;12.33;100.00
18509;BME280;9383;50.928;12.116;2022-09-09T03:58:23;98398.59;;;12.52;100.00
18509;BME280;9383;50.928;12.116;2022-09-09T04:00:57;98415.69;;;12.64;100.00
18509;BME280;9383;50.928;12.116;2022-09-09T04:03:26;98411.31;;;12.63;100.00
18509;BME280;9383;50.928;12.116;2022-09-09T04:05:54;98298.75;;;11.94;100.00
18509;BME280;9383;50.928;12.116;2022-09-09T04:08:22;98403.63;;;12.57;100.00
18509;BME280;9383;50.928;12.116;2022-09-09T04:10:52;98358.72;;;12.17;100.00
18509;BME280;9383;50.928;12.116;2022-09-09T04:13:20;98362.88;;;12.23;100.00
18509;BME280;9383;50.928;12.116;2022-09-09T04:15:58;98360.81;;;12.28;100.00
18509;BME280;9383;50.928;12.116;2022-09-09T04:18:26;98369.34;;;12.35;100.00
18509;BME280;9383;50.928;12.116;2022-09-09T04:20:58;98415.91;;;12.60;100.00
18509;BME280;9383;50.928;12.116;2022-09-09T04:23:31;98415.91;;;12.60;100.00
18509;BME280;9383;50.928;12.116;2022-09-09T04:26:00;98412.41;;;12.59;100.00
18509;BME280;9383;50.928;12.116;2022-09-09T04:28:31;98414.97;;;12.61;100.00
18509;BME280;9383;50.928;12.116;2022-09-09T04:31:09;98364.41;;;12.27;100.00
18509;BME280;9383;50.928;12.116;2022-09-09T04:33:46;98412.31;;;12.61;100.00
18509;BME280;9383;50.928;12.116;2022-09-09T04:36:17;98414.03;;;12.62;100.00
18509;BME280;9383;50.928;12.116;2022-09-09T04:38:46;98415.16;;;12.58;100.00
18509;BME280;9383;50.928;12.116;2022-09-09T04:41:16;98424.53;;;12.65;100.00
18509;BME280;9383;50.928;12.116;2022-09-09T04:43:44;98354.03;;;12.22;100.00
18509;BME280;9383;50.928;12.116;2022-09-09T04:46:11;98363.25;;;12.33;100.00
18509;BME280;9383;50.928;12.116;2022-09-09T04:48:41;98361.69;;;12.29;100.00
18509;BME280;9383;50.928;12.116;2022-09-09T04:51:15;98420.75;;;12.69;100.00
18509;BME280;9383;50.928;12.116;2022-09-09T04:53:44;98393.25;;;12.52;100.00
18509;BME280;9383;50.928;12.116;2022-09-09T04:56:16;98425.91;;;12.72;100.00
18509;BME280;9383;50.928;12.116;2022-09-09T04:58:48;98396.53;;;12.58;100.00
18509;BME280;9383;50.928;12.116;2022-09-09T05:01:19;98394.97;;;12.54;100.00
18509;BME280;9383;50.928;12.116;2022-09-09T05:03:46;98339.03;;;12.21;100.00
18509;BME280;9383;50.928;12.116;2022-09-09T05:06:18;98426.38;;;12.80;100.00
18509;BME280;9383;50.928;12.116;2022-09-09T05:08:45;98421.91;;;12.81;100.00
18509;BME280;9383;50.928;12.116;2022-09-09T05:11:25;98403.88;;;12.70;100.00
18509;BME280;9383;50.928;12.116;2022-09-09T05:13:53;98425.28;;;12.85;100.00
18509;BME280;9383;50.928;12.116;2022-09-09T05:16:21;98421.66;;;12.86;100.00
18509;BME280;9383;50.928;12.116;2022-09-09T05:18:50;98422.53;;;12.86;100.00
18509;BME280;9383;50.928;12.116;2022-09-09T05:21:36;98382.06;;;12.63;100.00
18509;BME280;9383;50.928;12.116;2022-09-09T05:24:21;98380.56;;;12.58;100.00
18509;BME280;9383;50.928;12.116;2022-09-09T05:27:08;98364.16;;;12.49;100.00
18509;BME280;9383;50.928;12.116;2022-09-09T05:29:51;98322.69;;;12.29;100.00
18509;BME280;9383;50.928;12.116;2022-09-09T05:32:19;98324.56;;;12.27;100.00
18509;BME280;9383;50.928;12.116;2022-09-09T05:34:46;98319.31;;;12.26;100.00
18509;BME280;9383;50.928;12.116;2022-09-09T05:37:13;98427.13;;;13.00;100.00
18509;BME280;9383;50.928;12.116;2022-09-09T05:39:39;98442.94;;;13.03;100.00
18509;BME280;9383;50.928;12.116;2022-09-09T05:42:11;98443.72;;;13.05;100.00
18509;BME280;9383;50.928;12.116;2022-09-09T05:44:44;98401.50;;;12.82;100.00
18509;BME280;9383;50.928;12.116;2022-09-09T05:47:30;98407.59;;;12.84;100.00
18509;BME280;9383;50.928;12.116;2022-09-09T05:49:56;98424.31;;;13.03;100.00
18509;BME280;9383;50.928;12.116;2022-09-09T05:52:22;98435.25;;;13.15;100.00
18509;BME280;9383;50.928;12.116;2022-09-09T05:54:49;98398.19;;;12.94;100.00
18509;BME280;9383;50.928;12.116;2022-09-09T05:57:35;98414.97;;;13.12;100.00
18509;BME280;9383;50.928;12.116;2022-09-09T06:00:21;98352.84;;;12.79;100.00
18509;BME280;9383;50.928;12.116;2022-09-09T06:03:11;98335.50;;;12.72;100.00
18509;BME280;9383;50.928;12.116;2022-09-09T06:05:59;98333.38;;;12.79;100.00
18509;BME280;9383;50.928;12.116;2022-09-09T06:08:44;98438.66;;;13.50;100.00
18509;BME280;9383;50.928;12.116;2022-09-09T06:11:31;98377.53;;;13.15;100.00
18509;BME280;9383;50.928;12.116;2022-09-09T06:14:17;98411.53;;;13.44;100.00
18509;BME280;9383;50.928;12.116;2022-09-09T06:17:03;98422.44;;;13.55;100.00
18509;BME280;9383;50.928;12.116;2022-09-09T06:19:49;98441.75;;;13.75;100.00
18509;BME280;9383;50.928;12.116;2022-09-09T06:22:35;98437.63;;;13.69;100.00
18509;BME280;9383;50.928;12.116;2022-09-09T06:25:21;98448.28;;;13.85;100.00
18509;BME280;9383;50.928;12.116;2022-09-09T06:28:07;98414.72;;;13.67;100.00
18509;BME280;9383;50.928;12.116;2022-09-09T06:30:37;98399.50;;;13.69;100.00
18509;BME280;9383;50.928;12.116;2022-09-09T06:33:04;98398.81;;;13.65;100.00
18509;BME280;9383;50.928;12.116;2022-09-09T06:35:54;98433.25;;;14.00;100.00
18509;BME280;9383;50.928;12.116;2022-09-09T06:38:21;98396.03;;;13.83;100.00
18509;BME280;9383;50.928;12.116;2022-09-09T06:40:57;98413.97;;;13.95;100.00
18509;BME280;9383;50.928;12.116;2022-09-09T06:43:44;98420.31;;;14.09;100.00
18509;BME280;9383;50.928;12.116;2022-09-09T06:46:17;98451.25;;;14.27;100.00
18509;BME280;9383;50.928;12.116;2022-09-09T06:48:50;98453.66;;;14.32;100.00
18509;BME280;9383;50.928;12.116;2022-09-09T06:51:37;98416.72;;;14.10;100.00
18509;BME280;9383;50.928;12.116;2022-09-09T06:54:28;98392.06;;;14.06;100.00
18509;BME280;9383;50.928;12.116;2022-09-09T06:57:14;98441.84;;;14.36;100.00
18509;BME280;9383;50.928;12.116;2022-09-09T06:59:59;98360.28;;;13.87;100.00
18509;BME280;9383;50.928;12.116;2022-09-09T07:02:26;98410.84;;;14.19;100.00
18509;BME280;9383;50.928;12.116;2022-09-09T07:04:52;98358.13;;;13.93;100.00
18509;BME280;9383;50.928;12.116;2022-09-09T07:07:18;98349.94;;;13.97;100.00
18509;BME280;9383;50.928;12.116;2022-09-09T07:09:48;98403.25;;;14.27;100.00
18509;BME280;9383;50.928;12.116;2022-09-09T07:12:28;98406.59;;;14.31;100.00
18509;BME280;9383;50.928;12.116;2022-09-09T07:15:13;98448.97;;;14.66;100.00
18509;BME280;9383;50.928;12.116;2022-09-09T07:18:01;98403.78;;;14.48;100.00
18509;BME280;9383;50.928;12.116;2022-09-09T07:20:55;98366.78;;;14.28;100.00
18509;BME280;9383;50.928;12.116;2022-09-09T07:23:24;98460.09;;;14.89;100.00
18509;BME280;9383;50.928;12.116;2022-09-09T07:25:50;98447.91;;;14.85;100.00
18509;BME280;9383;50.928;12.116;2022-09-09T07:28:17;98391.53;;;14.60;100.00
18509;BME280;9383;50.928;12.116;2022-09-09T07:30:43;98406.53;;;14.77;99.80
18509;BME280;9383;50.928;12.116;2022-09-09T07:33:10;98379.59;;;14.66;99.51
18509;BME280;9383;50.928;12.116;2022-09-09T07:35:36;98408.63;;;14.87;100.00
18509;BME280;9383;50.928;12.116;2022-09-09T07:38:05;98435.16;;;15.19;100.00
18509;BME280;9383;50.928;12.116;2022-09-09T07:40:45;98456.13;;;15.40;99.51
18509;BME280;9383;50.928;12.116;2022-09-09T07:43:30;98459.16;;;15.48;99.17
18509;BME280;9383;50.928;12.116;2022-09-09T07:46:00;98440.84;;;15.42;98.02
18509;BME280;9383;50.928;12.116;2022-09-09T07:48:29;98398.16;;;15.13;97.13
18509;BME280;9383;50.928;12.116;2022-09-09T07:51:17;98474.81;;;15.69;97.40
18509;BME280;9383;50.928;12.116;2022-09-09T07:53:46;98475.28;;;15.75;97.29
18509;BME280;9383;50.928;12.116;2022-09-09T07:56:20;98455.16;;;15.70;95.91
18509;BME280;9383;50.928;12.116;2022-09-09T07:58:58;98423.88;;;15.57;95.43
18509;BME280;9383;50.928;12.116;2022-09-09T08:01:49;98476.03;;;15.92;95.44
18509;BME280;9383;50.928;12.116;2022-09-09T08:04:20;98470.28;;;15.98;95.00
18509;BME280;9383;50.928;12.116;2022-09-09T08:06:59;98416.66;;;15.72;95.08
18509;BME280;9383;50.928;12.116;2022-09-09T08:09:29;98467.75;;;16.10;94.52
18509;BME280;9383;50.928;12.116;2022-09-09T08:12:07;98475.47;;;16.14;94.48
18509;BME280;9383;50.928;12.116;2022-09-09T08:14:37;98477.75;;;16.21;94.59
18509;BME280;9383;50.928;12.116;2022-09-09T08:17:05;98448.41;;;16.06;94.11
18509;BME280;9383;50.928;12.116;2022-09-09T08:19:40;98428.16;;;16.02;93.81
18509;BME280;9383;50.928;12.116;2022-09-09T08:22:07;98394.47;;;15.85;92.36
18509;BME280;9383;50.928;12.116;2022-09-09T08:24:33;98395.09;;;15.90;92.33
18509;BME280;9383;50.928;12.116;2022-09-09T08:26:59;98409.06;;;16.08;91.94
18509;BME280;9383;50.928;12.116;2022-09-09T08:29:45;98393.31;;;16.03;92.07
18509;BME280;9383;50.928;12.116;2022-09-09T08:32:13;98465.00;;;16.52;92.14
18509;BME280;9383;50.928;12.116;2022-09-09T08:34:39;98364.97;;;16.01;92.35
18509;BME280;9383;50.928;12.116;2022-09-09T08:37:06;98457.13;;;16.63;92.90
18509;BME280;9383;50.928;12.116;2022-09-09T08:39:34;98462.59;;;16.74;92.98
18509;BME280;9383;50.928;12.116;2022-09-09T08:42:34;98483.69;;;16.92;91.67
18509;BME280;9383;50.928;12.116;2022-09-09T08:49:23;98476.56;;;17.06;89.22
18509;BME280;9383;50.928;12.116;2022-09-09T08:52:26;98469.72;;;17.01;88.99
18509;BME280;9383;50.928;12.116;2022-09-09T08:58:19;98415.38;;;16.86;88.92
18509;BME280;9383;50.928;12.116;2022-09-09T09:01:05;98483.22;;;17.39;87.73
18509;BME280;9383;50.928;12.116;2022-09-09T09:04:04;98477.94;;;17.50;88.03
18509;BME280;9383;50.928;12.116;2022-09-09T09:10:46;98475.22;;;17.76;88.27
18509;BME280;9383;50.928;12.116;2022-09-09T09:13:50;98477.00;;;17.89;87.78
18509;BME280;9383;50.928;12.116;2022-09-09T09:16:30;98419.81;;;17.64;85.64
18509;BME280;9383;50.928;12.116;2022-09-09T09:19:00;98477.53;;;18.07;85.87
18509;BME280;9383;50.928;12.116;2022-09-09T09:21:44;98466.97;;;18.17;86.38
18509;BME280;9383;50.928;12.116;2022-09-09T09:24:49;98350.81;;;17.54;85.53
18509;BME280;9383;50.928;12.116;2022-09-09T09:27:40;98382.94;;;17.92;84.06
18509;BME280;9383;50.928;12.116;2022-09-09T09:30:18;98374.97;;;18.03;82.34
18509;BME280;9383;50.928;12.116;2022-09-09T09:32:56;98450.91;;;18.52;82.50
18509;BME280;9383;50.928;12.116;2022-09-09T09:35:28;98448.88;;;18.67;81.54
18509;BME280;9383;50.928;12.116;2022-09-09T09:37:55;98427.78;;;18.74;78.22
18509;BME280;9383;50.928;12.116;2022-09-09T09:40:58;98477.59;;;19.25;74.84
18509;BME280;9383;50.928;12.116;2022-09-09T09:43:31;98479.31;;;19.38;75.33
18509;BME280;9383;50.928;12.116;2022-09-09T09:45:58;98480.31;;;19.48;74.99
18509;BME280;9383;50.928;12.116;2022-09-09T09:48:34;98452.81;;;19.45;74.03
18509;BME280;9383;50.928;12.116;2022-09-09T09:51:09;98455.84;;;19.63;73.77
18509;BME280;9383;50.928;12.116;2022-09-09T09:53:38;98458.91;;;19.70;72.50
18509;BME280;9383;50.928;12.116;2022-09-09T09:56:13;98466.81;;;19.82;72.00
18509;BME280;9383;50.928;12.116;2022-09-09T10:01:30;98458.75;;;19.94;72.04
18509;BME280;9383;50.928;12.116;2022-09-09T10:04:19;98435.16;;;19.86;71.66
18509;BME280;9383;50.928;12.116;2022-09-09T10:06:51;98455.78;;;20.08;71.70
18509;BME280;9383;50.928;12.116;2022-09-09T10:09:30;98445.50;;;20.14;71.65
18509;BME280;9383;50.928;12.116;2022-09-09T10:12:20;98466.38;;;20.33;69.05
18509;BME280;9383;50.928;12.116;2022-09-09T10:18:49;98472.56;;;20.45;67.18
18509;BME280;9383;50.928;12.116;2022-09-09T10:21:51;98472.44;;;20.46;66.83
18509;BME280;9383;50.928;12.116;2022-09-09T10:27:55;98460.06;;;20.44;67.69
18509;BME280;9383;50.928;12.116;2022-09-09T10:33:56;98464.97;;;20.50;65.66
18509;BME280;9383;50.928;12.116;2022-09-09T10:36:29;98414.81;;;20.16;66.78
18509;BME280;9383;50.928;12.116;2022-09-09T10:39:35;98455.50;;;20.56;67.77
18509;BME280;9383;50.928;12.116;2022-09-09T10:42:09;98443.94;;;20.65;67.74
18509;BME280;9383;50.928;12.116;2022-09-09T10:50:53;98430.28;;;20.78;65.29
18509;BME280;9383;50.928;12.116;2022-09-09T10:53:36;98354.16;;;20.33;63.15
18509;BME280;9383;50.928;12.116;2022-09-09T10:56:13;98456.72;;;20.84;62.49
18509;BME280;9383;50.928;12.116;2022-09-09T11:01:33;98411.63;;;20.44;61.90
18509;BME280;9383;50.928;12.116;2022-09-09T11:04:33;98447.38;;;20.67;60.37
18509;BME280;9383;50.928;12.116;2022-09-09T11:07:12;98456.91;;;20.71;61.39
18509;BME280;9383;50.928;12.116;2022-09-09T11:09:50;98415.91;;;20.46;62.28
18509;BME280;9383;50.928;12.116;2022-09-09T11:12:20;98443.50;;;20.60;62.76
18509;BME280;9383;50.928;12.116;2022-09-09T11:15:23;98452.63;;;20.69;61.90
18509;BME280;9383;50.928;12.116;2022-09-09T11:18:03;98395.66;;;20.31;61.44
18509;BME280;9383;50.928;12.116;2022-09-09T11:20:32;98433.22;;;20.53;62.51
18509;BME280;9383;50.928;12.116;2022-09-09T11:23:13;98420.16;;;20.49;63.27
18509;BME280;9383;50.928;12.116;2022-09-09T11:26:00;98423.91;;;20.58;62.38
18509;BME280;9383;50.928;12.116;2022-09-09T11:29:17;98393.25;;;20.49;63.74
18509;BME280;9383;50.928;12.116;2022-09-09T11:35:29;98435.56;;;21.01;65.38
18509;BME280;9383;50.928;12.116;2022-09-09T11:38:26;98436.22;;;21.14;66.20
18509;BME280;9383;50.928;12.116;2022-09-09T11:41:06;98372.50;;;20.82;65.41
18509;BME280;9383;50.928;12.116;2022-09-09T11:43:45;98425.16;;;21.17;64.25
18509;BME280;9383;50.928;12.116;2022-09-09T11:46:16;98345.75;;;20.69;59.99
18509;BME280;9383;50.928;12.116;2022-09-09T11:48:57;98423.72;;;21.13;59.88
18509;BME280;9383;50.928;12.116;2022-09-09T11:51:35;98396.84;;;21.02;61.29
18509;BME280;9383;50.928;12.116;2022-09-09T11:54:30;98409.06;;;21.06;59.86
18509;BME280;9383;50.928;12.116;2022-09-09T11:56:57;98407.63;;;21.02;60.07
18509;BME280;9383;50.928;12.116;2022-09-09T11:59:29;98352.03;;;20.58;59.80
18509;BME280;9383;50.928;12.116;2022-09-09T12:02:03;98335.91;;;20.58;61.17
18509;BME280;9383;50.928;12.116;2022-09-09T12:05:01;98390.56;;;20.91;61.48
18509;BME280;9383;50.928;12.116;2022-09-09T12:07:38;98430.41;;;21.19;59.66
18509;BME280;9383;50.928;12.116;2022-09-09T12:10:28;98342.66;;;20.74;60.50
18509;BME280;9383;50.928;12.116;2022-09-09T12:13:19;98421.19;;;21.21;59.66
18509;BME280;9383;50.928;12.116;2022-09-09T12:15:59;98418.97;;;21.27;60.88
18509;BME280;9383;50.928;12.116;2022-09-09T12:18:39;98402.16;;;21.13;60.41
18509;BME280;9383;50.928;12.116;2022-09-09T12:21:54;98352.16;;;20.99;58.94
18509;BME280;9383;50.928;12.116;2022-09-09T12:24:37;98346.19;;;20.96;59.03
18509;BME280;9383;50.928;12.116;2022-09-09T12:27:31;98382.94;;;21.28;59.76
18509;BME280;9383;50.928;12.116;2022-09-09T12:30:15;98359.75;;;21.15;58.76
18509;BME280;9383;50.928;12.116;2022-09-09T12:32:41;98352.78;;;21.13;58.92
18509;BME280;9383;50.928;12.116;2022-09-09T12:35:30;98361.19;;;21.29;60.03
18509;BME280;9383;50.928;12.116;2022-09-09T12:38:02;98295.84;;;20.86;59.36
18509;BME280;9383;50.928;12.116;2022-09-09T12:40:33;98292.28;;;20.86;59.82
18509;BME280;9383;50.928;12.116;2022-09-09T12:43:19;98291.59;;;20.93;60.86
18509;BME280;9383;50.928;12.116;2022-09-09T12:45:51;98334.94;;;21.21;58.13
18509;BME280;9383;50.928;12.116;2022-09-09T12:48:35;98365.06;;;21.36;57.70
18509;BME280;9383;50.928;12.116;2022-09-09T12:51:07;98368.34;;;21.40;58.66
18509;BME280;9383;50.928;12.116;2022-09-09T12:53:42;98373.59;;;21.42;59.05
18509;BME280;9383;50.928;12.116;2022-09-09T12:56:19;98374.19;;;21.45;59.22
18509;BME280;9383;50.928;12.116;2022-09-09T12:58:50;98350.59;;;21.38;60.13
18509;BME280;9383;50.928;12.116;2022-09-09T13:01:29;98335.00;;;21.41;60.27
18509;BME280;9383;50.928;12.116;2022-09-09T13:03:57;98357.00;;;21.46;58.77
18509;BME280;9383;50.928;12.116;2022-09-09T13:06:30;98363.72;;;21.62;56.27
18509;BME280;9383;50.928;12.116;2022-09-09T13:09:03;98310.84;;;21.30;53.04
18509;BME280;9383;50.928;12.116;2022-09-09T13:11:41;98367.84;;;21.56;52.04
18509;BME280;9383;50.928;12.116;2022-09-09T13:14:25;98331.31;;;21.32;52.58
18509;BME280;9383;50.928;12.116;2022-09-09T13:16:58;98377.34;;;21.60;53.82
18509;BME280;9383;50.928;12.116;2022-09-09T13:19:25;98364.56;;;21.53;54.67
18509;BME280;9383;50.928;12.116;2022-09-09T13:21:55;98339.81;;;21.38;54.86
18509;BME280;9383;50.928;12.116;2022-09-09T13:24:34;98376.81;;;21.67;54.97
18509;BME280;9383;50.928;12.116;2022-09-09T13:27:05;98377.25;;;21.72;53.84
18509;BME280;9383;50.928;12.116;2022-09-09T13:29:54;98363.56;;;21.54;52.46
18509;BME280;9383;50.928;12.116;2022-09-09T13:32:24;98377.34;;;21.60;53.35
18509;BME280;9383;50.928;12.116;2022-09-09T13:34:59;98359.56;;;21.48;53.01
18509;BME280;9383;50.928;12.116;2022-09-09T13:37:38;98350.09;;;21.54;53.71
18509;BME280;9383;50.928;12.116;2022-09-09T13:40:19;98313.72;;;21.38;53.66
18509;BME280;9383;50.928;12.116;2022-09-09T13:42:52;98370.28;;;21.69;54.92
18509;BME280;9383;50.928;12.116;2022-09-09T13:45:22;98366.59;;;21.70;55.27
18509;BME280;9383;50.928;12.116;2022-09-09T13:47:49;98355.22;;;21.67;54.22
18509;BME280;9383;50.928;12.116;2022-09-09T13:50:29;98297.25;;;21.31;53.29
18509;BME280;9383;50.928;12.116;2022-09-09T13:52:59;98354.25;;;21.68;53.06
18509;BME280;9383;50.928;12.116;2022-09-09T13:55:30;98352.78;;;21.63;52.54
18509;BME280;9383;50.928;12.116;2022-09-09T13:58:02;98366.88;;;21.67;53.54
18509;BME280;9383;50.928;12.116;2022-09-09T14:00:34;98278.75;;;21.17;54.95
18509;BME280;9383;50.928;12.116;2022-09-09T14:03:01;98322.53;;;21.40;55.40
18509;BME280;9383;50.928;12.116;2022-09-09T14:05:32;98377.84;;;21.75;56.03
18509;BME280;9383;50.928;12.116;2022-09-09T14:08:06;98319.94;;;21.39;56.10
18509;BME280;9383;50.928;12.116;2022-09-09T14:10:34;98302.63;;;21.31;56.74
18509;BME280;9383;50.928;12.116;2022-09-09T14:13:03;98296.78;;;21.26;56.93
18509;BME280;9383;50.928;12.116;2022-09-09T14:15:30;98325.06;;;21.42;57.06
18509;BME280;9383;50.928;12.116;2022-09-09T14:17:57;98368.06;;;21.74;57.35
18509;BME280;9383;50.928;12.116;2022-09-09T14:20:29;98325.22;;;21.50;57.81
18509;BME280;9383;50.928;12.116;2022-09-09T14:22:55;98269.25;;;21.13;58.04
18509;BME280;9383;50.928;12.116;2022-09-09T14:25:26;98321.13;;;21.46;58.21
18509;BME280;9383;50.928;12.116;2022-09-09T14:27:54;98301.50;;;21.34;58.06
18509;BME280;9383;50.928;12.116;2022-09-09T14:30:20;98287.88;;;21.26;58.09
18509;BME280;9383;50.928;12.116;2022-09-09T14:32:47;98321.94;;;21.46;58.13
18509;BME280;9383;50.928;12.116;2022-09-09T14:35:13;98306.63;;;21.37;57.91
18509;BME280;9383;50.928;12.116;2022-09-09T14:37:51;98332.91;;;21.55;58.24
18509;BME280;9383;50.928;12.116;2022-09-09T14:40:19;98309.31;;;21.37;56.66
18509;BME280;9383;50.928;12.116;2022-09-09T14:42:53;98353.13;;;21.70;57.03
18509;BME280;9383;50.928;12.116;2022-09-09T14:45:19;98277.50;;;21.21;57.38
18509;BME280;9383;50.928;12.116;2022-09-09T14:47:49;98318.41;;;21.46;56.79
18509;BME280;9383;50.928;12.116;2022-09-09T14:50:19;98290.66;;;21.14;54.98
18509;BME280;9383;50.928;12.116;2022-09-09T14:52:46;98342.63;;;21.36;54.31
18509;BME280;9383;50.928;12.116;2022-09-09T14:55:15;98291.19;;;20.98;55.10